sensor_id;sensor_type;location;lat;lon;timestamp;pressure;altitude;pressure_sealevel;temperature;humidity
64739;BME280;51175;51.186;0.276;2023-12-20T00:00:25;101799.47;;;5.69;85.32
64739;BME280;51175;51.186;0.276;2023-12-20T00:00:55;101802.91;;;5.69;85.35
64739;BME280;51175;51.186;0.276;2023-12-20T00:01:26;101802.91;;;5.69;85.37
64739;BME280;51175;51.186;0.276;2023-12-20T00:01:56;101795.88;;;5.70;85.20
64739;BME280;51175;51.186;0.276;2023-12-20T00:02:26;101798.50;;;5.70;85.29
64739;BME280;51175;51.186;0.276;2023-12-20T00:02:57;101798.50;;;5.70;85.42
64739;BME280;51175;51.186;0.276;2023-12-20T00:03:28;101799.28;;;5.70;85.59
64739;BME280;51175;51.186;0.276;2023-12-20T00:03:58;101802.91;;;5.69;85.53
64739;BME280;51175;51.186;0.276;2023-12-20T00:04:29;101805.53;;;5.69;85.35
64739;BME280;51175;51.186;0.276;2023-12-20T00:04:59;101799.47;;;5.69;85.24
64739;BME280;51175;51.186;0.276;2023-12-20T00:05:30;101807.34;;;5.69;85.27
64739;BME280;51175;51.186;0.276;2023-12-20T00:06:02;101812.59;;;5.69;85.22
64739;BME280;51175;51.186;0.276;2023-12-20T00:06:32;101803.13;;;5.68;85.21
64739;BME280;51175;51.186;0.276;2023-12-20T00:07:03;101803.94;;;5.68;85.34
64739;BME280;51175;51.186;0.276;2023-12-20T00:07:33;101804.91;;;5.67;85.28
64739;BME280;51175;51.186;0.276;2023-12-20T00:08:04;101809.38;;;5.67;85.19
64739;BME280;51175;51.186;0.276;2023-12-20T00:08:35;101806.75;;;5.67;85.29
64739;BME280;51175;51.186;0.276;2023-12-20T00:09:05;101810.34;;;5.66;85.28
64739;BME280;51175;51.186;0.276;2023-12-20T00:09:36;101799.88;;;5.66;85.33
64739;BME280;51175;51.186;0.276;2023-12-20T00:10:06;101805.13;;;5.66;85.33
64739;BME280;51175;51.186;0.276;2023-12-20T00:10:37;101807.72;;;5.66;85.42
64739;BME280;51175;51.186;0.276;2023-12-20T00:11:07;101807.72;;;5.66;85.32
64739;BME280;51175;51.186;0.276;2023-12-20T00:11:38;101809.38;;;5.67;85.22
64739;BME280;51175;51.186;0.276;2023-12-20T00:12:09;101814.63;;;5.67;85.31
64739;BME280;51175;51.186;0.276;2023-12-20T00:12:39;101806.75;;;5.67;85.51
64739;BME280;51175;51.186;0.276;2023-12-20T00:13:11;101810.34;;;5.66;85.37
64739;BME280;51175;51.186;0.276;2023-12-20T00:13:41;101811.16;;;5.66;85.38
64739;BME280;51175;51.186;0.276;2023-12-20T00:14:12;101820.84;;;5.66;85.30
64739;BME280;51175;51.186;0.276;2023-12-20T00:14:42;101810.56;;;5.64;85.28
64739;BME280;51175;51.186;0.276;2023-12-20T00:15:13;101817.41;;;5.65;85.29
64739;BME280;51175;51.186;0.276;2023-12-20T00:15:43;101813.16;;;5.64;85.22
64739;BME280;51175;51.186;0.276;2023-12-20T00:16:14;101818.41;;;5.64;85.42
64739;BME280;51175;51.186;0.276;2023-12-20T00:16:44;101807.94;;;5.64;85.40
64739;BME280;51175;51.186;0.276;2023-12-20T00:17:14;101823.66;;;5.64;85.39
64739;BME280;51175;51.186;0.276;2023-12-20T00:17:45;101812.34;;;5.64;85.42
64739;BME280;51175;51.186;0.276;2023-12-20T00:18:15;101819.22;;;5.65;85.32
64739;BME280;51175;51.186;0.276;2023-12-20T00:18:46;101818.41;;;5.64;85.50
64739;BME280;51175;51.186;0.276;2023-12-20T00:19:16;101821.84;;;5.65;85.42
64739;BME280;51175;51.186;0.276;2023-12-20T00:19:47;101822.03;;;5.63;85.45
64739;BME280;51175;51.186;0.276;2023-12-20T00:20:17;101825.66;;;5.62;85.30
64739;BME280;51175;51.186;0.276;2023-12-20T00:20:47;101830.09;;;5.62;85.26
64739;BME280;51175;51.186;0.276;2023-12-20T00:21:18;101825.06;;;5.60;85.54
64739;BME280;51175;51.186;0.276;2023-12-20T00:21:48;101822.44;;;5.60;85.48
64739;BME280;51175;51.186;0.276;2023-12-20T00:22:18;101828.66;;;5.59;85.47
64739;BME280;51175;51.186;0.276;2023-12-20T00:22:49;101826.22;;;5.57;85.44
64739;BME280;51175;51.186;0.276;2023-12-20T00:23:19;101828.06;;;5.57;85.47
64739;BME280;51175;51.186;0.276;2023-12-20T00:23:50;101828.84;;;5.57;85.54
64739;BME280;51175;51.186;0.276;2023-12-20T00:24:20;101829.84;;;5.56;85.46
64739;BME280;51175;51.186;0.276;2023-12-20T00:24:50;101825.63;;;5.55;85.50
64739;BME280;51175;51.186;0.276;2023-12-20T00:25:21;101824.81;;;5.55;85.58
64739;BME280;51175;51.186;0.276;2023-12-20T00:25:51;101824.81;;;5.55;85.51
64739;BME280;51175;51.186;0.276;2023-12-20T00:26:21;101821.56;;;5.53;85.46
64739;BME280;51175;51.186;0.276;2023-12-20T00:26:52;101827.63;;;5.53;85.54
64739;BME280;51175;51.186;0.276;2023-12-20T00:27:22;101824.38;;;5.51;85.63
64739;BME280;51175;51.186;0.276;2023-12-20T00:27:53;101821.56;;;5.53;85.72
64739;BME280;51175;51.186;0.276;2023-12-20T00:28:23;101826.22;;;5.51;85.61
64739;BME280;51175;51.186;0.276;2023-12-20T00:28:54;101827.81;;;5.52;85.71
64739;BME280;51175;51.186;0.276;2023-12-20T00:29:24;101819.31;;;5.50;85.48
64739;BME280;51175;51.186;0.276;2023-12-20T00:29:55;101818.53;;;5.49;85.64
64739;BME280;51175;51.186;0.276;2023-12-20T00:30:25;101815.09;;;5.49;85.79
64739;BME280;51175;51.186;0.276;2023-12-20T00:30:55;101820.53;;;5.47;85.76
64739;BME280;51175;51.186;0.276;2023-12-20T00:31:26;101823.16;;;5.47;85.73
64739;BME280;51175;51.186;0.276;2023-12-20T00:31:56;101819.53;;;5.48;85.79
64739;BME280;51175;51.186;0.276;2023-12-20T00:32:27;101816.13;;;5.47;85.83
64739;BME280;51175;51.186;0.276;2023-12-20T00:32:57;101815.28;;;5.47;85.83
64739;BME280;51175;51.186;0.276;2023-12-20T00:33:27;101821.53;;;5.46;85.87
64739;BME280;51175;51.186;0.276;2023-12-20T00:33:58;101815.47;;;5.45;85.85
64739;BME280;51175;51.186;0.276;2023-12-20T00:34:28;101817.91;;;5.47;85.96
64739;BME280;51175;51.186;0.276;2023-12-20T00:34:58;101821.34;;;5.47;85.87
64739;BME280;51175;51.186;0.276;2023-12-20T00:35:29;101817.09;;;5.46;85.93
64739;BME280;51175;51.186;0.276;2023-12-20T00:35:59;101818.72;;;5.47;85.85
64739;BME280;51175;51.186;0.276;2023-12-20T00:36:29;101823.97;;;5.47;85.95
64739;BME280;51175;51.186;0.276;2023-12-20T00:37:00;101823.16;;;5.47;86.09
64739;BME280;51175;51.186;0.276;2023-12-20T00:37:30;101819.72;;;5.46;85.97
64739;BME280;51175;51.186;0.276;2023-12-20T00:38:00;101823.16;;;5.47;86.01
64739;BME280;51175;51.186;0.276;2023-12-20T00:38:31;101823.34;;;5.45;85.99
64739;BME280;51175;51.186;0.276;2023-12-20T00:39:01;101819.13;;;5.44;86.25
64739;BME280;51175;51.186;0.276;2023-12-20T00:39:32;101823.34;;;5.45;85.99
64739;BME280;51175;51.186;0.276;2023-12-20T00:40:03;101832.03;;;5.46;86.16
64739;BME280;51175;51.186;0.276;2023-12-20T00:40:34;101822.34;;;5.46;86.05
64739;BME280;51175;51.186;0.276;2023-12-20T00:41:04;101827.75;;;5.45;86.25
64739;BME280;51175;51.186;0.276;2023-12-20T00:41:34;101831.22;;;5.45;86.06
64739;BME280;51175;51.186;0.276;2023-12-20T00:42:05;101828.59;;;5.45;86.05
64739;BME280;51175;51.186;0.276;2023-12-20T00:42:35;101831.22;;;5.45;86.03
64739;BME280;51175;51.186;0.276;2023-12-20T00:43:06;101830.38;;;5.45;86.13
64739;BME280;51175;51.186;0.276;2023-12-20T00:43:36;101822.34;;;5.46;86.16
64739;BME280;51175;51.186;0.276;2023-12-20T00:44:07;101823.97;;;5.47;86.13
64739;BME280;51175;51.186;0.276;2023-12-20T00:44:37;101831.84;;;5.47;86.04
64739;BME280;51175;51.186;0.276;2023-12-20T00:45:08;101833.44;;;5.49;86.00
64739;BME280;51175;51.186;0.276;2023-12-20T00:45:38;101834.47;;;5.47;86.33
64739;BME280;51175;51.186;0.276;2023-12-20T00:46:09;101834.47;;;5.47;86.07
64739;BME280;51175;51.186;0.276;2023-12-20T00:46:39;101821.34;;;5.47;86.12
64739;BME280;51175;51.186;0.276;2023-12-20T00:47:10;101822.97;;;5.49;86.12
64739;BME280;51175;51.186;0.276;2023-12-20T00:47:40;101827.38;;;5.48;86.10
64739;BME280;51175;51.186;0.276;2023-12-20T00:48:10;101825.59;;;5.49;86.15
64739;BME280;51175;51.186;0.276;2023-12-20T00:48:41;101820.34;;;5.49;86.10
64739;BME280;51175;51.186;0.276;2023-12-20T00:49:12;101821.34;;;5.47;86.09
64739;BME280;51175;51.186;0.276;2023-12-20T00:49:42;101819.53;;;5.48;86.23
64739;BME280;51175;51.186;0.276;2023-12-20T00:50:13;101827.38;;;5.48;86.02
64739;BME280;51175;51.186;0.276;2023-12-20T00:50:43;101830.00;;;5.48;86.18
64739;BME280;51175;51.186;0.276;2023-12-20T00:51:13;101837.66;;;5.50;86.21
64739;BME280;51175;51.186;0.276;2023-12-20T00:51:44;101832.63;;;5.48;86.21
64739;BME280;51175;51.186;0.276;2023-12-20T00:52:14;101832.81;;;5.46;86.19
64739;BME280;51175;51.186;0.276;2023-12-20T00:52:44;101839.69;;;5.47;86.10
64739;BME280;51175;51.186;0.276;2023-12-20T00:53:16;101840.47;;;5.48;86.32
64739;BME280;51175;51.186;0.276;2023-12-20T00:53:46;101836.25;;;5.47;86.37
64739;BME280;51175;51.186;0.276;2023-12-20T00:54:19;101840.69;;;5.46;86.24
64739;BME280;51175;51.186;0.276;2023-12-20T00:54:50;101839.69;;;5.47;86.27
64739;BME280;51175;51.186;0.276;2023-12-20T00:55:20;101838.88;;;5.47;86.22
64739;BME280;51175;51.186;0.276;2023-12-20T00:55:50;101842.31;;;5.47;86.31
64739;BME280;51175;51.186;0.276;2023-12-20T00:56:21;101840.47;;;5.48;86.42
64739;BME280;51175;51.186;0.276;2023-12-20T00:56:52;101842.13;;;5.49;86.29
64739;BME280;51175;51.186;0.276;2023-12-20T00:57:22;101840.47;;;5.48;86.31
64739;BME280;51175;51.186;0.276;2023-12-20T00:57:53;101829.81;;;5.50;86.40
64739;BME280;51175;51.186;0.276;2023-12-20T00:58:24;101837.66;;;5.50;86.29
64739;BME280;51175;51.186;0.276;2023-12-20T00:58:54;101835.88;;;5.50;86.35
64739;BME280;51175;51.186;0.276;2023-12-20T00:59:24;101835.06;;;5.50;86.35
64739;BME280;51175;51.186;0.276;2023-12-20T00:59:55;101836.69;;;5.51;86.38
64739;BME280;51175;51.186;0.276;2023-12-20T01:00:25;101824.56;;;5.50;86.24
64739;BME280;51175;51.186;0.276;2023-12-20T01:00:56;101824.38;;;5.51;86.26
64739;BME280;51175;51.186;0.276;2023-12-20T01:01:26;101819.75;;;5.53;86.37
64739;BME280;51175;51.186;0.276;2023-12-20T01:01:56;101817.34;;;5.52;86.20
64739;BME280;51175;51.186;0.276;2023-12-20T01:02:27;101811.28;;;5.51;86.36
64739;BME280;51175;51.186;0.276;2023-12-20T01:02:57;101809.47;;;5.52;86.27
64739;BME280;51175;51.186;0.276;2023-12-20T01:03:29;101812.09;;;5.52;86.34
64739;BME280;51175;51.186;0.276;2023-12-20T01:03:59;101809.47;;;5.52;86.54
64739;BME280;51175;51.186;0.276;2023-12-20T01:04:30;101806.84;;;5.52;86.33
64739;BME280;51175;51.186;0.276;2023-12-20T01:05:00;101806.84;;;5.52;86.26
64739;BME280;51175;51.186;0.276;2023-12-20T01:05:30;101803.22;;;5.53;86.31
64739;BME280;51175;51.186;0.276;2023-12-20T01:06:01;101803.22;;;5.53;86.24
64739;BME280;51175;51.186;0.276;2023-12-20T01:06:31;101804.84;;;5.54;86.65
64739;BME280;51175;51.186;0.276;2023-12-20T01:07:01;101801.41;;;5.53;86.25
64739;BME280;51175;51.186;0.276;2023-12-20T01:07:32;101804.03;;;5.53;86.28
64739;BME280;51175;51.186;0.276;2023-12-20T01:08:02;101805.06;;;5.52;86.36
64739;BME280;51175;51.186;0.276;2023-12-20T01:08:33;101800.59;;;5.53;86.33
64739;BME280;51175;51.186;0.276;2023-12-20T01:09:05;101806.84;;;5.52;86.36
64739;BME280;51175;51.186;0.276;2023-12-20T01:09:35;101805.66;;;5.54;86.33
64739;BME280;51175;51.186;0.276;2023-12-20T01:10:07;101808.47;;;5.53;86.37
64739;BME280;51175;51.186;0.276;2023-12-20T01:10:38;101804.03;;;5.53;86.38
64739;BME280;51175;51.186;0.276;2023-12-20T01:11:08;101808.47;;;5.53;86.38
64739;BME280;51175;51.186;0.276;2023-12-20T01:11:38;101800.78;;;5.51;86.22
64739;BME280;51175;51.186;0.276;2023-12-20T01:12:09;101810.28;;;5.52;86.16
64739;BME280;51175;51.186;0.276;2023-12-20T01:12:40;101811.28;;;5.51;86.31
64739;BME280;51175;51.186;0.276;2023-12-20T01:13:10;101809.47;;;5.52;86.18
64739;BME280;51175;51.186;0.276;2023-12-20T01:13:41;101807.88;;;5.51;86.06
64739;BME280;51175;51.186;0.276;2023-12-20T01:14:12;101806.84;;;5.52;86.18
64739;BME280;51175;51.186;0.276;2023-12-20T01:14:42;101806.03;;;5.51;86.47
64739;BME280;51175;51.186;0.276;2023-12-20T01:15:13;101807.88;;;5.51;86.16
64739;BME280;51175;51.186;0.276;2023-12-20T01:15:43;101802.63;;;5.51;86.16
64739;BME280;51175;51.186;0.276;2023-12-20T01:16:14;101796.56;;;5.50;86.19
64739;BME280;51175;51.186;0.276;2023-12-20T01:16:44;101800.00;;;5.51;86.08
64739;BME280;51175;51.186;0.276;2023-12-20T01:17:15;101799.00;;;5.52;86.10
64739;BME280;51175;51.186;0.276;2023-12-20T01:17:45;101805.25;;;5.51;86.13
64739;BME280;51175;51.186;0.276;2023-12-20T01:18:15;101799.81;;;5.52;86.16
64739;BME280;51175;51.186;0.276;2023-12-20T01:18:46;101799.00;;;5.52;86.03
64739;BME280;51175;51.186;0.276;2023-12-20T01:19:16;101798.16;;;5.51;85.99
64739;BME280;51175;51.186;0.276;2023-12-20T01:19:46;101805.84;;;5.53;86.12
64739;BME280;51175;51.186;0.276;2023-12-20T01:20:17;101806.03;;;5.51;86.07
64739;BME280;51175;51.186;0.276;2023-12-20T01:20:47;101807.66;;;5.52;86.02
64739;BME280;51175;51.186;0.276;2023-12-20T01:21:18;101806.03;;;5.51;86.07
64739;BME280;51175;51.186;0.276;2023-12-20T01:21:48;101806.84;;;5.52;86.04
64739;BME280;51175;51.186;0.276;2023-12-20T01:22:18;101808.66;;;5.51;86.13
64739;BME280;51175;51.186;0.276;2023-12-20T01:22:49;101804.44;;;5.50;85.99
64739;BME280;51175;51.186;0.276;2023-12-20T01:23:19;101811.28;;;5.51;86.04
64739;BME280;51175;51.186;0.276;2023-12-20T01:23:49;101806.84;;;5.52;85.76
64739;BME280;51175;51.186;0.276;2023-12-20T01:24:20;101803.41;;;5.51;85.96
64739;BME280;51175;51.186;0.276;2023-12-20T01:24:50;101810.28;;;5.52;85.97
64739;BME280;51175;51.186;0.276;2023-12-20T01:25:21;101801.81;;;5.50;85.87
64739;BME280;51175;51.186;0.276;2023-12-20T01:25:51;101812.28;;;5.50;86.00
64739;BME280;51175;51.186;0.276;2023-12-20T01:26:22;101812.09;;;5.52;85.88
64739;BME280;51175;51.186;0.276;2023-12-20T01:26:52;101812.09;;;5.52;85.82
64739;BME280;51175;51.186;0.276;2023-12-20T01:27:22;101819.13;;;5.51;85.90
64739;BME280;51175;51.186;0.276;2023-12-20T01:27:53;101807.66;;;5.52;85.93
64739;BME280;51175;51.186;0.276;2023-12-20T01:28:23;101806.03;;;5.51;85.90
64739;BME280;51175;51.186;0.276;2023-12-20T01:28:53;101810.47;;;5.51;85.90
64739;BME280;51175;51.186;0.276;2023-12-20T01:29:24;101808.66;;;5.51;85.75
64739;BME280;51175;51.186;0.276;2023-12-20T01:29:54;101813.09;;;5.51;85.89
64739;BME280;51175;51.186;0.276;2023-12-20T01:30:24;101814.09;;;5.50;85.86
64739;BME280;51175;51.186;0.276;2023-12-20T01:30:55;101815.91;;;5.49;85.73
64739;BME280;51175;51.186;0.276;2023-12-20T01:31:26;101811.47;;;5.50;85.91
64739;BME280;51175;51.186;0.276;2023-12-20T01:31:57;101811.47;;;5.50;85.90
64739;BME280;51175;51.186;0.276;2023-12-20T01:32:27;101814.09;;;5.50;85.81
64739;BME280;51175;51.186;0.276;2023-12-20T01:33:00;101810.88;;;5.47;85.85
64739;BME280;51175;51.186;0.276;2023-12-20T01:33:30;101811.84;;;5.46;85.80
64739;BME280;51175;51.186;0.276;2023-12-20T01:34:00;101816.31;;;5.46;85.87
64739;BME280;51175;51.186;0.276;2023-12-20T01:34:31;101817.09;;;5.46;86.00
64739;BME280;51175;51.186;0.276;2023-12-20T01:35:01;101817.09;;;5.46;85.92
64739;BME280;51175;51.186;0.276;2023-12-20T01:35:32;101813.69;;;5.46;85.96
64739;BME280;51175;51.186;0.276;2023-12-20T01:36:03;101811.84;;;5.46;85.85
64739;BME280;51175;51.186;0.276;2023-12-20T01:36:33;101811.84;;;5.46;85.92
64739;BME280;51175;51.186;0.276;2023-12-20T01:37:04;101806.81;;;5.45;85.95
64739;BME280;51175;51.186;0.276;2023-12-20T01:37:34;101809.44;;;5.45;86.00
64739;BME280;51175;51.186;0.276;2023-12-20T01:38:04;101801.38;;;5.46;85.97
64739;BME280;51175;51.186;0.276;2023-12-20T01:38:35;101813.69;;;5.46;86.12
64739;BME280;51175;51.186;0.276;2023-12-20T01:39:05;101804.00;;;5.46;86.08
64739;BME280;51175;51.186;0.276;2023-12-20T01:39:36;101801.38;;;5.46;86.09
64739;BME280;51175;51.186;0.276;2023-12-20T01:40:07;101807.63;;;5.45;86.02
64739;BME280;51175;51.186;0.276;2023-12-20T01:40:38;101805.00;;;5.45;86.06
64739;BME280;51175;51.186;0.276;2023-12-20T01:41:08;101804.19;;;5.45;86.04
64739;BME280;51175;51.186;0.276;2023-12-20T01:41:38;101810.25;;;5.45;86.10
64739;BME280;51175;51.186;0.276;2023-12-20T01:42:09;101800.78;;;5.44;86.02
64739;BME280;51175;51.186;0.276;2023-12-20T01:42:39;101811.25;;;5.44;86.02
64739;BME280;51175;51.186;0.276;2023-12-20T01:43:09;101805.19;;;5.44;86.15
64739;BME280;51175;51.186;0.276;2023-12-20T01:43:41;101799.94;;;5.44;86.01
64739;BME280;51175;51.186;0.276;2023-12-20T01:44:12;101804.56;;;5.42;85.99
64739;BME280;51175;51.186;0.276;2023-12-20T01:44:42;101807.00;;;5.43;86.07
64739;BME280;51175;51.186;0.276;2023-12-20T01:45:12;101800.97;;;5.43;86.01
64739;BME280;51175;51.186;0.276;2023-12-20T01:45:43;101801.16;;;5.41;85.87
64739;BME280;51175;51.186;0.276;2023-12-20T01:46:14;101801.75;;;5.43;86.03
64739;BME280;51175;51.186;0.276;2023-12-20T01:46:45;101796.50;;;5.43;86.05
64739;BME280;51175;51.186;0.276;2023-12-20T01:47:16;101796.50;;;5.43;86.05
64739;BME280;51175;51.186;0.276;2023-12-20T01:47:47;101794.91;;;5.42;86.14
64739;BME280;51175;51.186;0.276;2023-12-20T01:48:18;101799.13;;;5.43;85.94
64739;BME280;51175;51.186;0.276;2023-12-20T01:48:49;101807.00;;;5.43;86.13
64739;BME280;51175;51.186;0.276;2023-12-20T01:49:21;101802.75;;;5.42;86.17
64739;BME280;51175;51.186;0.276;2023-12-20T01:49:52;101802.75;;;5.42;86.20
64739;BME280;51175;51.186;0.276;2023-12-20T01:50:22;101809.63;;;5.43;85.96
64739;BME280;51175;51.186;0.276;2023-12-20T01:50:53;101814.84;;;5.43;86.11
64739;BME280;51175;51.186;0.276;2023-12-20T01:51:25;101807.81;;;5.44;86.09
64739;BME280;51175;51.186;0.276;2023-12-20T01:51:57;101805.38;;;5.42;86.09
64739;BME280;51175;51.186;0.276;2023-12-20T01:52:27;101808.00;;;5.42;86.49
64739;BME280;51175;51.186;0.276;2023-12-20T01:53:00;101811.63;;;5.41;86.00
64739;BME280;51175;51.186;0.276;2023-12-20T01:53:31;101810.81;;;5.41;86.14
64739;BME280;51175;51.186;0.276;2023-12-20T01:54:03;101815.25;;;5.40;86.08
64739;BME280;51175;51.186;0.276;2023-12-20T01:54:35;101815.25;;;5.40;86.16
64739;BME280;51175;51.186;0.276;2023-12-20T01:55:06;101816.06;;;5.41;86.04
64739;BME280;51175;51.186;0.276;2023-12-20T01:55:43;101815.25;;;5.40;86.15
64739;BME280;51175;51.186;0.276;2023-12-20T01:56:15;101810.81;;;5.41;86.16
64739;BME280;51175;51.186;0.276;2023-12-20T01:56:46;101820.47;;;5.40;86.00
64739;BME280;51175;51.186;0.276;2023-12-20T01:57:16;101815.25;;;5.40;85.96
64739;BME280;51175;51.186;0.276;2023-12-20T01:57:47;101811.00;;;5.39;86.14
64739;BME280;51175;51.186;0.276;2023-12-20T01:58:18;101811.00;;;5.39;85.99
64739;BME280;51175;51.186;0.276;2023-12-20T01:58:49;101811.00;;;5.39;86.16
64739;BME280;51175;51.186;0.276;2023-12-20T01:59:20;101808.38;;;5.39;86.06
64739;BME280;51175;51.186;0.276;2023-12-20T01:59:51;101806.78;;;5.38;86.13
64739;BME280;51175;51.186;0.276;2023-12-20T02:00:22;101809.41;;;5.38;86.39
64739;BME280;51175;51.186;0.276;2023-12-20T02:00:54;101812.81;;;5.39;85.95
64739;BME280;51175;51.186;0.276;2023-12-20T02:01:24;101805.16;;;5.37;86.21
64739;BME280;51175;51.186;0.276;2023-12-20T02:01:55;101805.16;;;5.37;86.22
64739;BME280;51175;51.186;0.276;2023-12-20T02:02:27;101807.16;;;5.35;86.09
64739;BME280;51175;51.186;0.276;2023-12-20T02:03:01;101806.16;;;5.36;85.99
64739;BME280;51175;51.186;0.276;2023-12-20T02:03:32;101802.72;;;5.36;86.15
64739;BME280;51175;51.186;0.276;2023-12-20T02:04:02;101799.31;;;5.35;86.26
64739;BME280;51175;51.186;0.276;2023-12-20T02:04:32;101798.50;;;5.34;86.19
64739;BME280;51175;51.186;0.276;2023-12-20T02:05:03;101800.91;;;5.36;86.18
64739;BME280;51175;51.186;0.276;2023-12-20T02:05:34;101804.34;;;5.37;86.16
64739;BME280;51175;51.186;0.276;2023-12-20T02:06:05;101799.31;;;5.35;86.03
64739;BME280;51175;51.186;0.276;2023-12-20T02:06:38;101802.91;;;5.34;85.93
64739;BME280;51175;51.186;0.276;2023-12-20T02:07:11;101801.09;;;5.34;86.11
64739;BME280;51175;51.186;0.276;2023-12-20T02:07:42;101796.69;;;5.35;86.19
64739;BME280;51175;51.186;0.276;2023-12-20T02:08:12;101801.09;;;5.34;86.14
64739;BME280;51175;51.186;0.276;2023-12-20T02:08:43;101799.50;;;5.33;86.06
64739;BME280;51175;51.186;0.276;2023-12-20T02:09:15;101802.13;;;5.33;86.25
64739;BME280;51175;51.186;0.276;2023-12-20T02:09:46;101803.72;;;5.34;86.34
64739;BME280;51175;51.186;0.276;2023-12-20T02:10:17;101801.09;;;5.34;86.32
64739;BME280;51175;51.186;0.276;2023-12-20T02:10:47;101803.72;;;5.34;86.16
64739;BME280;51175;51.186;0.276;2023-12-20T02:11:18;101813.38;;;5.34;86.16
64739;BME280;51175;51.186;0.276;2023-12-20T02:11:49;101811.78;;;5.33;86.25
64739;BME280;51175;51.186;0.276;2023-12-20T02:12:19;101804.72;;;5.33;86.34
64739;BME280;51175;51.186;0.276;2023-12-20T02:12:50;101803.72;;;5.34;86.20
64739;BME280;51175;51.186;0.276;2023-12-20T02:13:20;101809.97;;;5.33;86.39
64739;BME280;51175;51.186;0.276;2023-12-20T02:13:51;101809.97;;;5.33;86.48
64739;BME280;51175;51.186;0.276;2023-12-20T02:14:21;101810.13;;;5.32;86.23
64739;BME280;51175;51.186;0.276;2023-12-20T02:14:51;101817.00;;;5.33;86.25
64739;BME280;51175;51.186;0.276;2023-12-20T02:15:22;101810.97;;;5.32;86.33
64739;BME280;51175;51.186;0.276;2023-12-20T02:15:57;101812.75;;;5.32;86.49
64739;BME280;51175;51.186;0.276;2023-12-20T02:16:27;101815.56;;;5.30;86.30
64739;BME280;51175;51.186;0.276;2023-12-20T02:16:57;101815.56;;;5.30;86.38
64739;BME280;51175;51.186;0.276;2023-12-20T02:17:29;101815.56;;;5.30;86.15
64739;BME280;51175;51.186;0.276;2023-12-20T02:18:00;101818.19;;;5.30;86.35
64739;BME280;51175;51.186;0.276;2023-12-20T02:18:30;101814.78;;;5.30;86.34
64739;BME280;51175;51.186;0.276;2023-12-20T02:19:01;101811.16;;;5.31;86.37
64739;BME280;51175;51.186;0.276;2023-12-20T02:19:31;101809.53;;;5.30;86.48
64739;BME280;51175;51.186;0.276;2023-12-20T02:20:02;101810.31;;;5.30;86.40
64739;BME280;51175;51.186;0.276;2023-12-20T02:20:32;101807.72;;;5.30;86.41
64739;BME280;51175;51.186;0.276;2023-12-20T02:21:04;101812.16;;;5.30;86.35
64739;BME280;51175;51.186;0.276;2023-12-20T02:21:35;101813.78;;;5.31;86.47
64739;BME280;51175;51.186;0.276;2023-12-20T02:22:12;101806.09;;;5.29;86.46
64739;BME280;51175;51.186;0.276;2023-12-20T02:22:42;101804.31;;;5.30;86.39
64739;BME280;51175;51.186;0.276;2023-12-20T02:23:12;101805.09;;;5.30;86.37
64739;BME280;51175;51.186;0.276;2023-12-20T02:23:43;101805.09;;;5.30;86.25
64739;BME280;51175;51.186;0.276;2023-12-20T02:24:13;101799.06;;;5.30;86.33
64739;BME280;51175;51.186;0.276;2023-12-20T02:24:43;101795.44;;;5.31;86.48
64739;BME280;51175;51.186;0.276;2023-12-20T02:25:14;101805.91;;;5.31;86.46
64739;BME280;51175;51.186;0.276;2023-12-20T02:25:44;101798.06;;;5.31;86.45
64739;BME280;51175;51.186;0.276;2023-12-20T02:26:15;101805.09;;;5.30;86.45
64739;BME280;51175;51.186;0.276;2023-12-20T02:26:45;101797.22;;;5.30;86.45
64739;BME280;51175;51.186;0.276;2023-12-20T02:27:18;101794.81;;;5.29;86.57
64739;BME280;51175;51.186;0.276;2023-12-20T02:27:49;101802.66;;;5.29;86.47
64739;BME280;51175;51.186;0.276;2023-12-20T02:28:20;101797.41;;;5.29;86.66
64739;BME280;51175;51.186;0.276;2023-12-20T02:28:52;101790.56;;;5.28;86.60
64739;BME280;51175;51.186;0.276;2023-12-20T02:29:22;101791.41;;;5.28;86.48
64739;BME280;51175;51.186;0.276;2023-12-20T02:29:53;101791.78;;;5.25;86.59
64739;BME280;51175;51.186;0.276;2023-12-20T02:30:23;101791.59;;;5.27;86.73
64739;BME280;51175;51.186;0.276;2023-12-20T02:30:53;101793.19;;;5.28;86.47
64739;BME280;51175;51.186;0.276;2023-12-20T02:31:24;101787.13;;;5.27;86.69
64739;BME280;51175;51.186;0.276;2023-12-20T02:31:54;101793.00;;;5.29;86.72
64739;BME280;51175;51.186;0.276;2023-12-20T02:32:25;101781.91;;;5.27;86.67
64739;BME280;51175;51.186;0.276;2023-12-20T02:32:56;101785.34;;;5.28;86.76
64739;BME280;51175;51.186;0.276;2023-12-20T02:33:27;101783.53;;;5.28;86.81
64739;BME280;51175;51.186;0.276;2023-12-20T02:33:57;101785.34;;;5.28;86.84
64739;BME280;51175;51.186;0.276;2023-12-20T02:34:28;101789.56;;;5.29;86.71
64739;BME280;51175;51.186;0.276;2023-12-20T02:34:59;101778.28;;;5.28;86.82
64739;BME280;51175;51.186;0.276;2023-12-20T02:35:29;101788.78;;;5.28;86.87
64739;BME280;51175;51.186;0.276;2023-12-20T02:35:59;101787.94;;;5.28;86.88
64739;BME280;51175;51.186;0.276;2023-12-20T02:36:30;101785.34;;;5.28;86.90
64739;BME280;51175;51.186;0.276;2023-12-20T02:37:00;101782.91;;;5.26;86.94
64739;BME280;51175;51.186;0.276;2023-12-20T02:37:32;101786.34;;;5.27;86.79
64739;BME280;51175;51.186;0.276;2023-12-20T02:38:02;101788.97;;;5.27;86.96
64739;BME280;51175;51.186;0.276;2023-12-20T02:38:33;101788.16;;;5.26;86.94
64739;BME280;51175;51.186;0.276;2023-12-20T02:39:04;101794.22;;;5.27;87.00
64739;BME280;51175;51.186;0.276;2023-12-20T02:39:34;101791.59;;;5.27;86.98
64739;BME280;51175;51.186;0.276;2023-12-20T02:40:05;101798.63;;;5.26;87.04
64739;BME280;51175;51.186;0.276;2023-12-20T02:40:36;101788.16;;;5.26;87.00
64739;BME280;51175;51.186;0.276;2023-12-20T02:41:06;101795.00;;;5.27;87.04
64739;BME280;51175;51.186;0.276;2023-12-20T02:41:36;101790.75;;;5.26;86.97
64739;BME280;51175;51.186;0.276;2023-12-20T02:42:07;101798.63;;;5.26;87.07
64739;BME280;51175;51.186;0.276;2023-12-20T02:42:37;101799.44;;;5.27;86.92